Time;durP1;ratioP1;P1;durP2;ratioP2;P2;SDS_P1;SDS_P2;PMS_P1;PMS_P2;Temp;Humidity;BMP_temperature;BMP_pressure;BME280_temperature;BME280_humidity;BME280_pressure;Samples;Min_cycle;Max_cycle;Signal;HPM_P1;HPM_P2
2023/10/22 00:02:19;;;;;;;2.60;2.60;;;22.80;92.50;;;;;;5023424;28;20877;-68
2023/10/22 00:04:47;;;;;;;3.00;3.00;;;22.80;92.50;;;;;;5022313;28;20473;-68
2023/10/22 00:07:14;;;;;;;2.80;2.80;;;22.80;92.50;;;;;;5019863;28;20473;-68
2023/10/22 00:09:41;;;;;;;2.40;2.40;;;22.80;92.50;;;;;;5019736;28;20460;-69
2023/10/22 00:12:09;;;;;;;2.67;2.67;;;22.80;92.40;;;;;;5023165;28;20952;-68
2023/10/22 00:14:35;;;;;;;2.60;2.60;;;22.80;92.50;;;;;;5023078;28;20564;-68
2023/10/22 00:17:03;;;;;;;2.50;2.50;;;22.80;92.40;;;;;;5020071;28;20442;-68
2023/10/22 00:19:30;;;;;;;2.70;2.70;;;22.80;92.40;;;;;;5026527;28;20449;-68
2023/10/22 00:21:59;;;;;;;2.50;2.40;;;22.80;92.40;;;;;;5020851;28;20962;-68
2023/10/22 00:24:25;;;;;;;2.30;2.30;;;22.80;92.40;;;;;;5019538;28;20494;-68
2023/10/22 00:26:52;;;;;;;2.87;2.77;;;22.80;92.40;;;;;;5021056;28;20469;-67
2023/10/22 00:29:19;;;;;;;3.30;3.20;;;22.80;92.40;;;;;;5023182;28;20499;-68
2023/10/22 00:31:46;;;;;;;2.50;2.50;;;22.80;92.40;;;;;;5022455;28;20477;-67
2023/10/22 00:34:13;;;;;;;2.60;2.47;;;22.80;92.40;;;;;;5019511;28;20830;-67
2023/10/22 00:36:41;;;;;;;2.77;2.67;;;22.80;92.40;;;;;;5019544;28;20474;-68
2023/10/22 00:39:09;;;;;;;2.60;2.60;;;22.80;92.40;;;;;;5019582;28;20484;-67
2023/10/22 00:41:36;;;;;;;2.33;2.33;;;22.80;92.40;;;;;;5019588;28;20442;-67
2023/10/22 00:44:03;;;;;;;2.77;2.70;;;22.80;92.40;;;;;;5022072;28;20515;-68
2023/10/22 00:46:30;;;;;;;2.77;2.70;;;22.80;92.40;;;;;;5022949;28;20441;-68
2023/10/22 00:48:58;;;;;;;2.40;2.40;;;22.80;92.40;;;;;;5020886;28;20472;-68
2023/10/22 00:51:25;;;;;;;2.60;2.60;;;22.80;92.40;;;;;;5019335;28;20824;-67
2023/10/22 00:53:53;;;;;;;2.53;2.53;;;22.80;92.40;;;;;;5020383;28;20921;-67
2023/10/22 00:56:22;;;;;;;2.57;2.57;;;22.80;92.40;;;;;;5022923;28;20896;-68
2023/10/22 00:58:50;;;;;;;2.60;2.50;;;22.80;92.40;;;;;;5022065;28;20453;-68
2023/10/22 01:01:18;;;;;;;2.83;2.83;;;22.80;92.40;;;;;;5019281;28;20497;-68
2023/10/22 01:03:44;;;;;;;2.60;2.60;;;22.80;92.40;;;;;;5019294;28;20516;-68
2023/10/22 01:06:11;;;;;;;2.83;2.73;;;22.80;92.40;;;;;;5022719;28;20494;-69
2023/10/22 01:08:39;;;;;;;2.50;2.50;;;22.80;92.40;;;;;;5022836;28;20885;-68
2023/10/22 01:11:06;;;;;;;2.33;2.33;;;22.80;92.40;;;;;;5019471;28;20469;-69
2023/10/22 01:13:35;;;;;;;2.57;2.50;;;22.80;92.40;;;;;;5019151;28;20500;-68
2023/10/22 01:16:02;;;;;;;2.60;2.60;;;22.80;92.30;;;;;;5021671;28;20506;-69
2023/10/22 01:18:29;;;;;;;2.40;2.40;;;22.80;92.30;;;;;;5025289;28;20472;-68
2023/10/22 01:20:56;;;;;;;2.43;2.43;;;22.80;92.30;;;;;;5024305;28;20477;-69
2023/10/22 01:23:25;;;;;;;2.60;2.60;;;22.80;92.30;;;;;;5022742;28;20497;-68
2023/10/22 01:25:52;;;;;;;2.40;2.40;;;22.80;92.30;;;;;;5023544;28;20546;-68
2023/10/22 01:28:19;;;;;;;2.50;2.50;;;22.80;92.30;;;;;;5026069;28;20488;-68
2023/10/22 01:30:46;;;;;;;2.30;2.30;;;22.70;92.30;;;;;;5025544;28;20483;-68
2023/10/22 01:33:13;;;;;;;2.37;2.37;;;22.70;92.30;;;;;;5022433;28;20493;-69
2023/10/22 01:35:40;;;;;;;2.50;2.50;;;22.70;92.20;;;;;;5022494;28;20506;-69
2023/10/22 01:38:06;;;;;;;2.53;2.53;;;22.70;92.20;;;;;;5025347;28;20482;-69
2023/10/22 01:40:35;;;;;;;2.33;2.33;;;22.70;92.20;;;;;;5025723;28;20809;-68
2023/10/22 01:43:02;;;;;;;2.53;2.53;;;22.70;92.20;;;;;;5022987;28;20473;-68
2023/10/22 01:45:29;;;;;;;2.60;2.60;;;22.70;92.20;;;;;;5022346;28;20662;-68
2023/10/22 01:47:56;;;;;;;2.50;2.40;;;22.70;92.20;;;;;;5023856;28;20480;-67
2023/10/22 01:50:23;;;;;;;2.60;2.60;;;22.70;92.10;;;;;;5025618;28;20867;-67
2023/10/22 01:52:50;;;;;;;2.30;2.30;;;22.70;92.20;;;;;;5024770;28;20441;-68
2023/10/22 01:55:17;;;;;;;2.13;2.13;;;22.70;92.10;;;;;;5021984;28;21023;-68
2023/10/22 01:57:45;;;;;;;2.40;2.40;;;22.70;92.10;;;;;;5022066;28;20469;-67
2023/10/22 02:00:13;;;;;;;2.30;2.30;;;22.70;92.10;;;;;;5022049;28;20470;-68
2023/10/22 02:02:40;;;;;;;2.70;2.60;;;22.70;92.10;;;;;;5021879;28;20501;-67
2023/10/22 02:05:08;;;;;;;2.53;2.53;;;22.70;92.10;;;;;;5024724;28;20487;-67
2023/10/22 02:07:37;;;;;;;2.57;2.57;;;22.70;92.10;;;;;;5025354;28;20868;-68
2023/10/22 02:10:04;;;;;;;2.60;2.60;;;22.70;92.10;;;;;;5022750;28;20476;-68
2023/10/22 02:12:31;;;;;;;2.40;2.40;;;22.70;92.10;;;;;;5022023;28;20477;-67
2023/10/22 02:14:59;;;;;;;2.60;2.60;;;22.70;92.10;;;;;;5023210;28;20524;-69
2023/10/22 02:17:26;;;;;;;2.50;2.40;;;22.70;92.10;;;;;;5025159;28;20567;-68
2023/10/22 02:19:53;;;;;;;2.20;2.20;;;22.60;92.00;;;;;;5024078;28;20480;-68
2023/10/22 02:22:20;;;;;;;2.80;2.70;;;22.70;92.10;;;;;;5021705;28;20872;-68
2023/10/22 02:24:46;;;;;;;2.53;2.40;;;22.70;92.10;;;;;;5021467;28;20889;-69
2023/10/22 02:27:13;;;;;;;2.80;2.80;;;22.70;92.10;;;;;;5025107;28;20469;-68
2023/10/22 02:29:40;;;;;;;2.43;2.43;;;22.70;92.10;;;;;;5023793;28;20483;-68
2023/10/22 02:32:08;;;;;;;2.20;2.20;;;22.70;92.10;;;;;;5021984;28;20470;-68
2023/10/22 02:34:36;;;;;;;2.40;2.40;;;22.70;92.10;;;;;;5021467;28;20524;-67
2023/10/22 02:37:03;;;;;;;2.20;2.20;;;22.70;92.00;;;;;;5023437;28;20468;-69
2023/10/22 02:39:31;;;;;;;2.40;2.40;;;22.70;92.10;;;;;;5024750;28;20814;-69
2023/10/22 02:41:57;;;;;;;2.60;2.60;;;22.70;92.00;;;;;;5023205;28;20445;-69
2023/10/22 02:44:24;;;;;;;2.40;2.40;;;22.70;92.10;;;;;;5044708;22;20485;-66
2023/10/22 02:46:51;;;;;;;2.40;2.40;;;22.70;92.10;;;;;;5023859;28;20505;-66
2023/10/22 02:49:20;;;;;;;2.60;2.60;;;22.70;92.10;;;;;;5021152;28;20474;-66
2023/10/22 02:51:48;;;;;;;2.10;2.10;;;22.70;92.00;;;;;;5021090;28;20956;-67
2023/10/22 02:54:15;;;;;;;2.67;2.60;;;22.70;92.00;;;;;;5013200;28;20904;-66
2023/10/22 02:56:42;;;;;;;2.23;2.23;;;22.70;92.00;;;;;;5020951;28;20561;-66
2023/10/22 02:59:09;;;;;;;2.70;2.60;;;22.70;92.00;;;;;;5023892;28;20484;-67
2023/10/22 03:01:36;;;;;;;2.60;2.50;;;22.70;92.30;;;;;;5024232;28;20998;-66
2023/10/22 03:04:03;;;;;;;2.40;2.40;;;22.70;91.90;;;;;;5021889;28;20461;-66
2023/10/22 03:06:32;;;;;;;3.10;3.00;;;22.70;91.90;;;;;;5020986;28;20564;-66
2023/10/22 03:08:59;;;;;;;2.63;2.63;;;22.70;92.00;;;;;;5022140;28;20862;-66
2023/10/22 03:11:26;;;;;;;2.40;2.40;;;22.70;91.90;;;;;;5024158;28;20878;-67
2023/10/22 03:13:53;;;;;;;2.70;2.63;;;22.70;91.90;;;;;;5023315;28;20558;-67
2023/10/22 03:16:20;;;;;;;2.40;2.40;;;22.60;91.80;;;;;;5020480;28;20520;-66
2023/10/22 03:18:48;;;;;;;2.40;2.40;;;22.70;91.90;;;;;;5020582;28;20434;-66
2023/10/22 03:21:18;;;;;;;2.40;2.40;;;22.70;91.90;;;;;;5012678;28;20466;-66
2023/10/22 03:23:47;;;;;;;2.70;2.50;;;22.60;91.80;;;;;;5020443;28;20493;-66
2023/10/22 03:26:16;;;;;;;2.20;2.20;;;22.60;91.80;;;;;;5012378;28;20499;-67
2023/10/22 03:28:43;;;;;;;2.40;2.40;;;22.70;91.90;;;;;;5020496;28;20474;-66
2023/10/22 03:31:10;;;;;;;2.20;2.20;;;22.70;91.90;;;;;;5022980;28;20957;-66
2023/10/22 03:33:37;;;;;;;2.50;2.50;;;22.70;91.90;;;;;;5023722;28;20566;-66
2023/10/22 03:36:05;;;;;;;2.40;2.40;;;22.70;91.90;;;;;;5021490;28;20565;-66
2023/10/22 03:38:32;;;;;;;2.10;2.10;;;22.70;91.90;;;;;;5020294;28;20446;-66
2023/10/22 03:41:02;;;;;;;2.40;2.40;;;22.70;91.80;;;;;;5021184;28;20474;-66
2023/10/22 03:43:29;;;;;;;2.40;2.40;;;22.60;91.80;;;;;;5023386;28;20492;-66
2023/10/22 03:45:56;;;;;;;2.20;2.20;;;22.60;91.80;;;;;;5022502;28;20853;-66
2023/10/22 03:48:23;;;;;;;2.20;2.20;;;22.60;91.80;;;;;;5020209;28;20941;-66
2023/10/22 03:50:50;;;;;;;2.40;2.40;;;22.60;91.80;;;;;;5020082;28;20865;-66
2023/10/22 03:53:17;;;;;;;2.23;2.23;;;22.60;91.80;;;;;;5023378;28;20441;-66
2023/10/22 03:55:44;;;;;;;2.30;2.30;;;22.60;91.80;;;;;;5023328;28;20927;-66
2023/10/22 03:58:12;;;;;;;3.27;3.17;;;22.60;91.80;;;;;;5020431;28;20473;-66
2023/10/22 04:00:39;;;;;;;3.03;2.77;;;22.60;91.80;;;;;;5019989;28;20473;-66
2023/10/22 04:03:06;;;;;;;2.50;2.50;;;22.70;91.80;;;;;;5021990;28;20886;-67
2023/10/22 04:05:33;;;;;;;2.40;2.40;;;22.70;91.90;;;;;;5023251;28;20465;-67
2023/10/22 04:08:00;;;;;;;2.30;2.30;;;22.70;91.90;;;;;;5021778;28;20469;-67
2023/10/22 04:10:27;;;;;;;2.60;2.60;;;22.70;92.00;;;;;;5020040;28;20893;-67
2023/10/22 04:12:54;;;;;;;2.40;2.30;;;22.70;92.00;;;;;;5020134;28;20481;-67
2023/10/22 04:15:23;;;;;;;2.60;2.60;;;22.70;92.00;;;;;;5023226;28;20489;-67
2023/10/22 04:17:50;;;;;;;2.30;2.30;;;22.70;92.00;;;;;;5023290;28;20472;-67
2023/10/22 04:20:17;;;;;;;2.20;2.20;;;22.70;92.00;;;;;;5011883;28;20441;-67
2023/10/22 04:22:45;;;;;;;2.10;2.10;;;22.70;92.00;;;;;;5019708;28;20474;-67
2023/10/22 04:25:14;;;;;;;2.30;2.30;;;22.70;92.00;;;;;;5022306;28;20489;-67
2023/10/22 04:27:41;;;;;;;2.20;2.20;;;22.70;92.00;;;;;;5023076;28;20876;-67
2023/10/22 04:30:09;;;;;;;2.50;2.50;;;22.70;92.00;;;;;;5020622;28;20472;-67
2023/10/22 04:32:37;;;;;;;2.23;2.23;;;22.70;92.00;;;;;;5019658;28;20930;-67
2023/10/22 04:35:05;;;;;;;2.43;2.40;;;22.70;92.00;;;;;;5021081;28;20493;-67
2023/10/22 04:37:32;;;;;;;2.33;2.33;;;22.70;92.00;;;;;;5023134;28;20855;-67
2023/10/22 04:39:59;;;;;;;2.57;2.47;;;22.70;92.00;;;;;;5021945;28;20479;-67
2023/10/22 04:42:27;;;;;;;2.20;2.20;;;22.70;92.00;;;;;;5019572;28;20470;-67
2023/10/22 04:44:54;;;;;;;2.40;2.40;;;22.70;92.10;;;;;;5019518;28;20508;-67
2023/10/22 04:47:21;;;;;;;2.47;2.47;;;22.70;92.10;;;;;;5022931;28;20465;-67
2023/10/22 04:49:51;;;;;;;2.30;2.30;;;22.70;92.00;;;;;;5022949;28;20437;-67
2023/10/22 04:52:27;;;;;;;2.53;2.50;;;22.70;92.10;;;;;;5012578;28;20481;-67
2023/10/22 04:54:54;;;;;;;2.00;2.00;;;22.70;92.00;;;;;;5023318;28;20548;-67
2023/10/22 04:57:21;;;;;;;2.33;2.33;;;22.70;92.00;;;;;;5026640;28;20509;-67
2023/10/22 04:59:47;;;;;;;2.10;2.10;;;22.80;92.10;;;;;;5026548;28;20469;-67
2023/10/22 05:02:14;;;;;;;2.10;2.10;;;22.70;92.00;;;;;;5023377;28;20442;-67
2023/10/22 05:04:41;;;;;;;2.60;2.40;;;22.70;92.10;;;;;;5023132;28;20494;-67
2023/10/22 05:07:09;;;;;;;2.83;2.73;;;22.70;92.00;;;;;;5025079;28;20493;-67
2023/10/22 05:09:36;;;;;;;2.67;2.67;;;22.70;92.00;;;;;;5026441;28;20848;-67
2023/10/22 05:12:04;;;;;;;2.73;2.63;;;22.70;92.00;;;;;;5024894;28;20892;-67
2023/10/22 05:14:31;;;;;;;2.57;2.57;;;22.70;92.00;;;;;;5022834;28;20496;-67
2023/10/22 05:16:58;;;;;;;2.30;2.30;;;22.70;91.90;;;;;;5023464;28;20488;-67
2023/10/22 05:19:25;;;;;;;2.43;2.43;;;22.70;91.90;;;;;;5026362;28;20441;-67
2023/10/22 05:21:53;;;;;;;2.20;2.20;;;22.70;91.90;;;;;;5026245;28;20810;-67
2023/10/22 05:24:21;;;;;;;2.50;2.50;;;22.70;91.90;;;;;;5014641;28;20496;-67
2023/10/22 05:26:48;;;;;;;2.10;2.10;;;22.70;91.90;;;;;;5022780;28;20496;-67
2023/10/22 05:29:15;;;;;;;2.30;2.30;;;22.70;91.80;;;;;;5025341;28;20476;-67
2023/10/22 05:31:42;;;;;;;2.47;2.47;;;22.70;91.80;;;;;;5026085;28;20472;-67
2023/10/22 05:34:09;;;;;;;2.40;2.40;;;22.70;91.80;;;;;;5023710;28;20702;-67
2023/10/22 05:36:36;;;;;;;2.20;2.20;;;22.70;91.80;;;;;;5022403;28;20477;-67
2023/10/22 05:39:03;;;;;;;2.30;2.30;;;22.70;91.70;;;;;;5023739;28;20477;-67
2023/10/22 05:41:32;;;;;;;2.30;2.30;;;22.70;91.80;;;;;;5025893;28;20472;-68
2023/10/22 05:44:02;;;;;;;2.67;2.67;;;22.70;91.70;;;;;;5024944;28;20892;-67
2023/10/22 05:46:31;;;;;;;2.40;2.40;;;22.70;91.70;;;;;;5022385;28;20446;-67
2023/10/22 05:48:58;;;;;;;2.10;2.10;;;22.70;91.60;;;;;;5022672;28;20478;-67
2023/10/22 05:51:25;;;;;;;2.50;2.50;;;22.70;91.60;;;;;;5025537;28;20476;-67
2023/10/22 05:53:52;;;;;;;2.40;2.40;;;22.60;91.60;;;;;;5025530;28;20499;-67
2023/10/22 05:56:20;;;;;;;2.40;2.40;;;22.70;91.60;;;;;;5022013;28;20506;-67
2023/10/22 05:58:48;;;;;;;2.73;2.73;;;22.70;91.60;;;;;;5022105;28;20880;-67
2023/10/22 06:01:15;;;;;;;2.40;2.40;;;22.60;91.50;;;;;;5024681;28;20473;-67
2023/10/22 06:03:43;;;;;;;2.50;2.50;;;22.70;91.60;;;;;;5025009;28;20492;-67
2023/10/22 06:06:10;;;;;;;2.40;2.40;;;22.70;91.70;;;;;;5023261;28;20453;-67
2023/10/22 06:08:37;;;;;;;2.60;2.50;;;22.70;91.60;;;;;;5021845;28;20445;-67
2023/10/22 06:11:04;;;;;;;2.50;2.50;;;22.70;91.70;;;;;;5022914;28;20485;-67
2023/10/22 06:13:31;;;;;;;2.40;2.40;;;22.70;91.70;;;;;;5025109;28;20492;-67
2023/10/22 06:16:00;;;;;;;2.57;2.50;;;22.70;91.80;;;;;;5024577;28;20574;-67
2023/10/22 06:18:27;;;;;;;2.37;2.37;;;22.70;91.80;;;;;;5021884;28;20445;-67
2023/10/22 06:20:53;;;;;;;2.63;2.63;;;22.70;91.80;;;;;;5021617;28;20949;-67
2023/10/22 06:23:22;;;;;;;2.67;2.67;;;22.70;91.90;;;;;;5024795;28;20973;-67
2023/10/22 06:25:49;;;;;;;2.80;2.80;;;22.70;91.90;;;;;;5024931;28;20448;-67
2023/10/22 06:28:16;;;;;;;2.80;2.80;;;22.70;91.90;;;;;;5022196;28;20473;-67
2023/10/22 06:30:43;;;;;;;2.47;2.47;;;22.70;91.90;;;;;;5021664;28;20470;-67
2023/10/22 06:33:11;;;;;;;2.90;2.80;;;22.70;92.00;;;;;;5023002;28;20508;-67
2023/10/22 06:35:38;;;;;;;2.63;2.63;;;22.70;92.00;;;;;;5024826;28;20522;-67
2023/10/22 06:38:05;;;;;;;2.70;2.60;;;22.70;92.00;;;;;;5023587;28;20469;-68
2023/10/22 06:40:35;;;;;;;2.50;2.50;;;22.70;91.90;;;;;;5021337;28;20474;-68
2023/10/22 06:43:02;;;;;;;2.70;2.70;;;22.70;92.00;;;;;;5022000;28;20466;-67
2023/10/22 06:45:29;;;;;;;2.40;2.40;;;22.70;91.90;;;;;;5024481;28;20971;-67
2023/10/22 06:47:57;;;;;;;2.77;2.77;;;22.70;91.90;;;;;;5024644;28;20522;-67
2023/10/22 06:50:26;;;;;;;2.93;2.73;;;22.70;91.90;;;;;;5013229;28;20827;-68
2023/10/22 06:52:53;;;;;;;2.93;2.93;;;22.70;92.20;;;;;;5021139;28;20850;-68
2023/10/22 06:55:20;;;;;;;2.70;2.70;;;22.70;91.90;;;;;;5023914;28;20489;-68
2023/10/22 06:57:47;;;;;;;2.77;2.77;;;22.70;91.90;;;;;;5024218;28;20481;-68
2023/10/22 07:00:14;;;;;;;2.90;2.90;;;22.70;91.90;;;;;;5022074;28;20476;-68
2023/10/22 07:02:41;;;;;;;3.10;3.10;;;22.70;91.80;;;;;;5020898;28;20466;-67
2023/10/22 07:05:10;;;;;;;2.93;2.93;;;22.70;91.80;;;;;;5022131;28;20523;-67
2023/10/22 07:07:41;;;;;;;2.70;2.70;;;22.70;91.80;;;;;;5024292;28;20472;-68
2023/10/22 07:10:10;;;;;;;2.90;2.90;;;22.70;91.80;;;;;;5022758;28;20503;-67
2023/10/22 07:12:37;;;;;;;2.80;2.80;;;22.70;91.80;;;;;;5020760;28;20450;-68
2023/10/22 07:15:04;;;;;;;2.90;2.90;;;22.70;91.80;;;;;;5020867;28;20471;-67
2023/10/22 07:17:31;;;;;;;3.20;3.20;;;22.70;91.80;;;;;;5024091;28;20472;-68
2023/10/22 07:19:58;;;;;;;3.10;2.90;;;22.70;91.80;;;;;;5023887;28;20481;-68
2023/10/22 07:22:25;;;;;;;3.10;3.10;;;22.70;91.70;;;;;;5020687;28;21007;-68
2023/10/22 07:24:53;;;;;;;2.67;2.67;;;22.70;91.70;;;;;;5020442;28;20465;-68
2023/10/22 07:27:20;;;;;;;3.00;3.00;;;22.70;91.70;;;;;;5023307;28;20882;-68
2023/10/22 07:29:47;;;;;;;3.47;3.37;;;22.70;91.60;;;;;;5023853;28;20563;-68
2023/10/22 07:32:14;;;;;;;2.90;2.90;;;22.70;91.60;;;;;;5021538;28;20477;-68
2023/10/22 07:34:41;;;;;;;2.70;2.70;;;22.70;91.60;;;;;;5020290;28;20466;-68
2023/10/22 07:37:08;;;;;;;2.90;2.90;;;22.70;91.60;;;;;;5021342;28;20509;-67
2023/10/22 07:39:35;;;;;;;2.80;2.80;;;22.70;91.60;;;;;;5023747;28;20476;-68
2023/10/22 07:42:03;;;;;;;3.33;3.23;;;22.70;91.60;;;;;;5023269;28;20468;-68
2023/10/22 07:44:30;;;;;;;2.80;2.80;;;22.70;91.50;;;;;;5020093;28;20512;-68
2023/10/22 07:46:57;;;;;;;2.73;2.73;;;22.60;91.50;;;;;;5020162;28;20522;-68
2023/10/22 07:49:24;;;;;;;3.47;3.37;;;22.60;91.50;;;;;;5015677;28;20476;-68
2023/10/22 07:51:51;;;;;;;3.60;3.33;;;22.70;92.10;;;;;;5015457;28;20979;-69
2023/10/22 07:54:18;;;;;;;3.77;3.67;;;22.70;92.30;;;;;;5020626;28;20506;-68
2023/10/22 07:56:45;;;;;;;4.00;3.90;;;22.60;92.00;;;;;;5019378;28;20509;-69
2023/10/22 07:59:13;;;;;;;3.97;3.87;;;22.70;92.20;;;;;;5016718;28;20492;-69
2023/10/22 08:01:40;;;;;;;4.17;3.97;;;22.70;92.20;;;;;;5020352;28;21076;-68
2023/10/22 08:04:08;;;;;;;3.83;3.63;;;22.70;92.10;;;;;;5020627;28;20501;-68
2023/10/22 08:06:34;;;;;;;4.63;4.43;;;22.70;92.00;;;;;;5020972;28;20441;-67
2023/10/22 08:09:01;;;;;;;4.43;4.23;;;22.70;92.00;;;;;;5019907;28;20486;-68
2023/10/22 08:11:28;;;;;;;5.03;4.70;;;22.70;92.30;;;;;;5023357;28;20483;-69
2023/10/22 08:13:55;;;;;;;4.20;4.10;;;22.70;92.50;;;;;;5017881;28;20494;-67
2023/10/22 08:16:23;;;;;;;3.53;3.40;;;22.80;92.20;;;;;;5018426;28;20472;-71
2023/10/22 08:18:50;;;;;;;3.87;3.63;;;22.80;92.20;;;;;;5023115;28;20473;-69
2023/10/22 08:21:17;;;;;;;3.80;3.70;;;22.80;92.10;;;;;;5020746;28;20473;-69
2023/10/22 08:23:46;;;;;;;3.87;3.67;;;22.80;92.00;;;;;;5019734;28;20492;-70
2023/10/22 08:26:13;;;;;;;3.33;3.10;;;22.80;92.00;;;;;;5022618;28;20504;-68
2023/10/22 08:28:40;;;;;;;5.43;4.60;;;22.80;91.90;;;;;;5026996;28;20476;-71
2023/10/22 08:31:07;;;;;;;3.53;3.43;;;22.80;92.00;;;;;;5026880;28;20476;-69
2023/10/22 08:33:35;;;;;;;3.40;3.30;;;22.90;92.40;;;;;;5022317;28;20500;-70
2023/10/22 08:36:07;;;;;;;4.27;3.87;;;22.90;92.20;;;;;;5028296;28;20473;-69
2023/10/22 08:38:34;;;;;;;4.20;3.63;;;22.90;92.60;;;;;;5027389;28;20479;-69
2023/10/22 08:41:02;;;;;;;3.57;3.40;;;22.90;92.30;;;;;;5027094;28;20441;-70
2023/10/22 08:43:31;;;;;;;4.20;3.80;;;22.90;92.30;;;;;;5039825;22;21043;-67
2023/10/22 08:45:59;;;;;;;3.77;3.57;;;22.90;92.40;;;;;;5021811;28;20479;-71
2023/10/22 08:48:27;;;;;;;4.37;4.10;;;22.90;92.30;;;;;;5023286;28;20492;-71
2023/10/22 08:50:58;;;;;;;4.77;3.43;;;22.90;92.20;;;;;;5024950;28;20455;-71
2023/10/22 08:53:25;;;;;;;3.97;3.67;;;23.00;92.30;;;;;;5024078;28;20465;-71
2023/10/22 08:55:52;;;;;;;3.83;3.70;;;22.90;92.40;;;;;;5002840;28;20786;-73
2023/10/22 08:58:21;;;;;;;3.90;3.70;;;23.00;92.20;;;;;;5005329;28;20536;-70
2023/10/22 09:00:49;;;;;;;3.30;3.20;;;23.00;92.20;;;;;;5002368;28;20485;-71
2023/10/22 09:03:17;;;;;;;3.83;3.60;;;23.00;92.10;;;;;;5005307;28;20473;-71
2023/10/22 09:05:45;;;;;;;3.60;3.50;;;23.00;92.10;;;;;;5003705;28;21051;-71
2023/10/22 09:08:13;;;;;;;4.17;3.87;;;22.90;92.10;;;;;;5004303;28;20446;-71
2023/10/22 09:10:42;;;;;;;4.27;4.07;;;22.90;92.00;;;;;;4997317;28;20869;-71
2023/10/22 09:13:13;;;;;;;3.37;3.27;;;23.00;92.10;;;;;;5004403;28;20475;-71
2023/10/22 09:15:41;;;;;;;4.40;4.00;;;23.00;92.10;;;;;;5006792;28;20493;-70
2023/10/22 09:18:08;;;;;;;3.50;3.40;;;23.00;92.00;;;;;;5005505;28;20560;-70
2023/10/22 09:20:36;;;;;;;3.30;3.20;;;23.00;92.00;;;;;;5003584;28;20475;-70
2023/10/22 09:23:15;;;;;;;24.13;4.60;;;23.00;92.00;;;;;;5004008;28;20455;-72
2023/10/22 09:25:42;;;;;;;4.00;3.80;;;23.00;92.20;;;;;;5001691;28;20474;-71
2023/10/22 09:28:14;;;;;;;4.40;4.10;;;23.00;91.90;;;;;;5004217;28;20502;-70
2023/10/22 09:30:41;;;;;;;4.33;4.03;;;23.10;91.80;;;;;;5007209;28;20446;-72
2023/10/22 09:33:09;;;;;;;3.77;3.67;;;23.10;91.90;;;;;;5000002;28;21237;-70
2023/10/22 09:35:37;;;;;;;5.80;4.33;;;23.10;92.30;;;;;;5010516;28;20529;-70
2023/10/22 09:38:04;;;;;;;3.10;3.10;;;23.10;91.80;;;;;;5003117;28;20853;-74
2023/10/22 09:40:34;;;;;;;4.40;3.80;;;23.10;92.00;;;;;;5007197;28;20466;-73
2023/10/22 09:43:03;;;;;;;3.70;3.60;;;23.00;91.90;;;;;;5007476;28;20455;-71
2023/10/22 09:45:31;;;;;;;4.67;3.77;;;23.10;91.90;;;;;;5003219;28;20477;-71
2023/10/22 09:48:05;;;;;;;4.67;3.60;;;23.00;92.20;;;;;;5003229;28;20467;-71
2023/10/22 09:50:34;;;;;;;3.23;3.17;;;23.00;92.20;;;;;;4995990;28;20439;-71
2023/10/22 09:53:04;;;;;;;4.10;3.90;;;23.00;92.20;;;;;;5003817;28;20505;-72
2023/10/22 09:55:35;;;;;;;4.00;3.80;;;23.00;92.00;;;;;;5002763;28;20517;-70
2023/10/22 09:58:03;;;;;;;4.30;4.00;;;23.00;91.80;;;;;;5002693;28;20520;-73
2023/10/22 10:00:30;;;;;;;3.83;3.73;;;23.00;91.90;;;;;;4994757;28;20467;-72
2023/10/22 10:02:59;;;;;;;3.87;3.67;;;23.00;91.80;;;;;;5002500;28;20486;-70
2023/10/22 10:05:26;;;;;;;3.57;3.47;;;23.10;91.90;;;;;;5005366;28;20977;-70
2023/10/22 10:07:54;;;;;;;3.57;3.47;;;23.10;92.00;;;;;;5005945;28;20466;-70
2023/10/22 10:10:24;;;;;;;3.97;3.77;;;23.10;92.00;;;;;;5003499;28;20478;-70
2023/10/22 10:12:52;;;;;;;3.37;3.30;;;23.10;92.00;;;;;;5000115;28;20450;-70
2023/10/22 10:15:33;;;;;;;3.53;3.50;;;23.10;91.90;;;;;;5004068;28;20505;-71
2023/10/22 10:18:01;;;;;;;4.10;3.80;;;23.10;91.90;;;;;;5006065;28;20497;-72
2023/10/22 10:20:30;;;;;;;4.00;3.80;;;23.20;92.30;;;;;;5003340;28;20444;-71
2023/10/22 10:23:05;;;;;;;4.07;3.97;;;23.20;92.10;;;;;;5002706;28;21159;-72
2023/10/22 10:25:33;;;;;;;3.90;3.80;;;23.30;92.00;;;;;;4995253;28;20493;-71
2023/10/22 10:28:06;;;;;;;3.80;3.70;;;23.30;91.80;;;;;;5002682;28;20475;-70
2023/10/22 10:30:34;;;;;;;4.10;4.00;;;23.30;91.70;;;;;;4995164;28;20682;-69
2023/10/22 10:33:01;;;;;;;3.40;3.40;;;23.30;91.70;;;;;;5006380;28;20862;-71
2023/10/22 10:35:29;;;;;;;4.73;4.50;;;23.30;91.10;;;;;;5007879;28;20458;-70
2023/10/22 10:38:18;;;;;;;4.10;3.90;;;23.30;91.30;;;;;;5009748;28;20904;-70
2023/10/22 10:40:46;;;;;;;4.10;3.90;;;23.30;91.40;;;;;;5002747;28;20470;-70
2023/10/22 10:43:15;;;;;;;21.20;9.70;;;23.30;91.40;;;;;;5010284;28;20465;-72
2023/10/22 10:46:15;;;;;;;141.90;49.70;;;23.30;91.40;;;;;;5003821;28;20493;-72
2023/10/22 10:48:47;;;;;;;278.43;97.17;;;23.30;91.60;;;;;;4996716;28;20467;-73
2023/10/22 10:51:18;;;;;;;302.73;106.93;;;23.30;92.20;;;;;;5002913;28;20450;-71
2023/10/22 10:54:17;;;;;;;338.63;117.87;;;23.30;92.50;;;;;;5005884;28;20439;-72
2023/10/22 10:56:52;;;;;;;377.43;134.40;;;23.30;92.80;;;;;;4996568;28;20453;-74
2023/10/22 10:59:34;;;;;;;438.70;142.60;;;23.40;92.80;;;;;;5004612;28;20520;-70
2023/10/22 11:02:12;;;;;;;354.07;133.83;;;23.40;92.70;;;;;;5005252;28;21005;-73
2023/10/22 11:04:44;;;;;;;376.33;137.43;;;23.40;93.10;;;;;;4995294;28;20467;-71
2023/10/22 11:07:11;;;;;;;367.30;130.77;;;23.40;93.20;;;;;;5002880;28;20454;-72
2023/10/22 11:09:40;;;;;;;376.47;139.20;;;23.40;94.50;;;;;;5009890;28;20484;-72
2023/10/22 11:12:08;;;;;;;386.03;140.37;;;23.40;93.50;;;;;;5002600;28;20459;-70
2023/10/22 11:14:37;;;;;;;361.23;134.40;;;23.40;93.50;;;;;;5001745;28;20545;-72
2023/10/22 11:17:05;;;;;;;352.27;135.13;;;23.40;93.40;;;;;;5002952;28;20501;-74
2023/10/22 11:19:33;;;;;;;365.73;129.97;;;23.50;94.20;;;;;;5005107;28;20509;-72
2023/10/22 11:22:01;;;;;;;360.33;125.07;;;23.40;93.30;;;;;;5002329;28;20453;-72
2023/10/22 11:24:30;;;;;;;317.27;121.27;;;23.50;93.30;;;;;;5004264;28;20609;-71
2023/10/22 11:26:58;;;;;;;359.97;123.67;;;23.50;93.20;;;;;;5002074;28;20521;-72
2023/10/22 11:29:25;;;;;;;314.70;120.60;;;23.50;93.20;;;;;;5004823;28;20493;-73
2023/10/22 11:31:58;;;;;;;327.43;118.67;;;23.50;93.00;;;;;;5003614;28;20455;-71
2023/10/22 11:34:25;;;;;;;308.00;125.27;;;23.50;93.30;;;;;;5004058;28;20474;-70
2023/10/22 11:36:58;;;;;;;301.70;117.07;;;23.50;93.30;;;;;;5004977;28;20466;-71
2023/10/22 11:39:34;;;;;;;281.27;110.63;;;23.50;93.20;;;;;;5003025;28;20477;-70
2023/10/22 11:42:02;;;;;;;287.50;105.07;;;23.50;93.20;;;;;;5001635;28;20956;-72
2023/10/22 11:44:31;;;;;;;252.00;108.97;;;23.60;93.20;;;;;;5001903;28;20481;-71
2023/10/22 11:47:00;;;;;;;246.77;103.80;;;23.60;93.20;;;;;;5001684;28;20526;-71
2023/10/22 11:49:27;;;;;;;254.17;100.93;;;23.60;93.20;;;;;;5004060;28;20522;-72
2023/10/22 11:51:54;;;;;;;245.20;100.83;;;23.60;93.00;;;;;;5000802;28;20478;-70
2023/10/22 11:54:36;;;;;;;243.03;103.17;;;23.60;92.80;;;;;;5003004;28;21008;-72
2023/10/22 11:57:03;;;;;;;227.50;98.77;;;23.60;92.70;;;;;;5001503;28;20498;-70
2023/10/22 11:59:31;;;;;;;241.07;98.67;;;23.60;93.00;;;;;;5004491;28;20518;-71
2023/10/22 12:01:59;;;;;;;238.30;94.47;;;23.60;92.90;;;;;;5003236;28;20474;-69
2023/10/22 12:04:26;;;;;;;216.50;86.00;;;23.60;92.90;;;;;;5003553;28;20561;-71
2023/10/22 12:06:53;;;;;;;224.80;86.47;;;23.70;92.90;;;;;;5005480;28;20465;-72
2023/10/22 12:09:20;;;;;;;204.70;86.90;;;23.60;93.30;;;;;;5003961;28;20468;-71
2023/10/22 12:11:47;;;;;;;201.10;85.80;;;23.70;92.90;;;;;;5001416;28;20493;-71
2023/10/22 12:14:13;;;;;;;219.70;87.30;;;23.70;92.80;;;;;;5001942;28;21022;-71
2023/10/22 12:16:40;;;;;;;191.77;82.20;;;23.70;93.10;;;;;;5004681;28;20975;-71
2023/10/22 12:19:08;;;;;;;198.30;84.67;;;23.70;92.80;;;;;;5005127;28;20528;-70
2023/10/22 12:21:35;;;;;;;185.53;78.10;;;23.70;92.70;;;;;;4995190;28;20486;-71
2023/10/22 12:24:03;;;;;;;198.17;78.77;;;23.70;92.70;;;;;;5001308;28;20494;-70
2023/10/22 12:26:30;;;;;;;180.23;74.40;;;23.70;92.60;;;;;;5003662;28;20947;-71
2023/10/22 12:28:57;;;;;;;178.20;78.90;;;23.70;92.60;;;;;;5004082;28;20599;-72
2023/10/22 12:31:24;;;;;;;206.52;95.72;;;23.70;92.50;;;;;;5002003;28;20563;-69
2023/10/22 12:33:50;;;;;;;161.87;73.07;;;23.70;92.50;;;;;;4996993;28;20231;-69
2023/10/22 12:36:19;;;;;;;165.87;71.93;;;23.70;92.80;;;;;;5001381;28;20482;-69
2023/10/22 12:38:46;;;;;;;164.80;73.53;;;23.80;92.60;;;;;;5003944;28;20508;-72
2023/10/22 12:41:13;;;;;;;145.60;68.03;;;23.80;92.50;;;;;;5003946;28;20957;-71
2023/10/22 12:43:40;;;;;;;159.03;66.43;;;23.80;92.30;;;;;;5000629;28;20958;-68
2023/10/22 12:46:07;;;;;;;165.50;78.15;;;23.80;92.00;;;;;;5005626;28;20550;-71